Pueblo Nuevo, Argentina
Current Conditions -  °F | °C
As of 2:00 PM on Friday 21 Nov 2014 (Local Time) from SAAR Reporting Station
Overcast Overcast  
Wind Chill: 20°   Ceiling: 2800
Heat Index: 20°   Visibility: 6mi
Dew Point: 13°   Wind: 5mph
Humidity: 64%   Direction: 90°E
Pressure: 29.94"   Gusts: NA
Location:  33.03°S, 60.62°W
Report Text: SAAR 211700Z 09004KT 9999 SCT025 BKN028OVC100 20/13 Q1014
Loading
Personal Weather Stations






























Interactive Weather Map New forecast layout! Learn more

10-Day Weather Forecast

Advertisements
Track Severe Weather on mobile